createdAt,value
2023-03-17T00:01:54.990Z,3.03
2023-03-17T00:04:25.759Z,3.25
2023-03-17T00:06:53.151Z,2.58
2023-03-17T00:09:21.214Z,2.70
2023-03-17T00:11:49.198Z,3.22
2023-03-17T00:14:16.839Z,2.97
2023-03-17T00:16:45.901Z,3.08
2023-03-17T00:19:24.433Z,3.05
2023-03-17T00:21:51.829Z,3.75
2023-03-17T00:24:18.657Z,2.87
2023-03-17T00:29:12.199Z,2.53
2023-03-17T00:34:08.213Z,2.50
2023-03-17T00:36:35.974Z,2.90
2023-03-17T00:39:03.724Z,2.97
2023-03-17T00:41:30.732Z,2.35
2023-03-17T00:43:57.721Z,2.95
2023-03-17T00:46:31.373Z,3.08
2023-03-17T00:48:58.612Z,2.90
2023-03-17T00:51:25.522Z,3.17
2023-03-17T00:53:52.898Z,2.87
2023-03-17T00:56:20.985Z,3.17
2023-03-17T00:58:48.850Z,3.00
2023-03-17T01:01:16.225Z,2.80
2023-03-17T01:03:43.260Z,2.62
2023-03-17T01:06:12.562Z,2.78
2023-03-17T01:08:40.867Z,3.72
2023-03-17T01:11:18.932Z,4.30
2023-03-17T01:13:46.928Z,3.75
2023-03-17T01:16:14.150Z,3.30
2023-03-17T01:18:41.212Z,4.10
2023-03-17T01:21:08.788Z,3.25
2023-03-17T01:23:35.676Z,3.78
2023-03-17T01:28:29.704Z,4.12
2023-03-17T01:30:56.968Z,3.60
2023-03-17T01:33:23.965Z,3.60
2023-03-17T01:35:51.294Z,3.25
2023-03-17T01:38:19.013Z,3.30
2023-03-17T01:40:49.885Z,3.10
2023-03-17T01:43:21.632Z,3.20
2023-03-17T01:46:13.490Z,3.15
2023-03-17T01:48:59.814Z,2.90
2023-03-17T01:51:54.069Z,3.83
2023-03-17T01:54:42.143Z,2.80
2023-03-17T01:57:16.237Z,3.83
2023-03-17T01:59:50.306Z,4.12
2023-03-17T02:02:31.504Z,4.20
2023-03-17T02:04:58.882Z,4.35
2023-03-17T02:07:26.808Z,3.80
2023-03-17T02:09:54.918Z,3.40
2023-03-17T02:12:23.593Z,3.92
2023-03-17T02:14:51.882Z,4.22
2023-03-17T02:17:21.322Z,3.67
2023-03-17T02:19:48.447Z,3.45
2023-03-17T02:22:16.837Z,3.90
2023-03-17T02:24:48.201Z,2.92
2023-03-17T02:27:23.144Z,3.55
2023-03-17T02:29:50.990Z,3.62
2023-03-17T02:32:18.878Z,3.90
2023-03-17T02:34:48.561Z,4.50
2023-03-17T02:37:16.518Z,3.90
2023-03-17T02:39:43.838Z,3.40
2023-03-17T02:42:11.138Z,3.50
2023-03-17T02:44:38.485Z,3.67
2023-03-17T02:47:06.680Z,2.83
2023-03-17T02:49:34.539Z,3.72
2023-03-17T02:52:01.817Z,5.05
2023-03-17T02:54:28.634Z,3.35
2023-03-17T02:59:22.387Z,3.90
2023-03-17T03:01:50.823Z,3.75
2023-03-17T03:04:19.381Z,3.85
2023-03-17T03:06:47.057Z,4.00
2023-03-17T03:09:14.942Z,3.95
2023-03-17T03:11:42.823Z,3.47
2023-03-17T03:14:10.532Z,3.70
2023-03-17T03:16:38.169Z,4.18
2023-03-17T03:19:05.786Z,4.07
2023-03-17T03:21:32.976Z,4.75
2023-03-17T03:23:59.846Z,3.92
2023-03-17T03:28:54.404Z,3.47
2023-03-17T03:31:21.450Z,3.83
2023-03-17T03:33:48.451Z,3.95
2023-03-17T03:36:15.345Z,4.18
2023-03-17T03:41:09.924Z,3.50
2023-03-17T03:43:36.841Z,3.97
2023-03-17T03:46:04.655Z,4.37
2023-03-17T03:48:31.599Z,4.65
2023-03-17T03:53:26.207Z,3.60
2023-03-17T03:55:53.849Z,4.10
2023-03-17T03:58:21.176Z,4.20
2023-03-17T04:00:48.116Z,4.65
2023-03-17T04:05:42.134Z,4.65
2023-03-17T04:08:09.382Z,4.53
2023-03-17T04:10:36.428Z,3.45
2023-03-17T04:13:03.367Z,3.67
2023-03-17T04:15:30.288Z,3.62
2023-03-17T04:20:23.946Z,4.10
2023-03-17T04:22:51.500Z,3.80
2023-03-17T04:25:18.884Z,3.37
2023-03-17T04:27:45.826Z,4.35
2023-03-17T04:32:45.089Z,4.47
2023-03-17T04:35:18.619Z,4.12
2023-03-17T04:37:46.108Z,4.18
2023-03-17T04:40:14.419Z,4.55
2023-03-17T04:42:41.757Z,4.85
2023-03-17T04:45:11.457Z,6.05
2023-03-17T04:47:38.736Z,6.43
2023-03-17T04:50:08.237Z,6.93
2023-03-17T04:52:36.645Z,8.60
2023-03-17T04:55:04.335Z,7.22
2023-03-17T04:57:31.195Z,7.45
2023-03-17T05:02:24.817Z,6.85
2023-03-17T05:04:51.927Z,7.68
2023-03-17T05:07:18.852Z,8.27
2023-03-17T05:12:13.556Z,7.03
2023-03-17T05:14:41.370Z,7.12
2023-03-17T05:17:08.585Z,14.90
2023-03-17T05:19:35.602Z,13.43
2023-03-17T05:22:02.503Z,10.68
2023-03-17T05:26:56.182Z,11.75
2023-03-17T05:29:23.266Z,6.30
2023-03-17T05:31:50.126Z,7.50
2023-03-17T05:36:44.852Z,9.70
2023-03-17T05:39:14.426Z,10.85
2023-03-17T05:41:41.683Z,8.05
2023-03-17T05:44:08.958Z,4.72
2023-03-17T05:46:35.911Z,4.82
2023-03-17T05:49:03.307Z,5.05
2023-03-17T05:51:30.433Z,5.40
2023-03-17T05:53:57.736Z,5.03
2023-03-17T05:56:26.552Z,5.18
2023-03-17T05:58:53.435Z,4.30
2023-03-17T06:01:20.321Z,3.90
2023-03-17T06:03:47.346Z,4.70
2023-03-17T06:06:14.230Z,3.70
2023-03-17T06:08:41.176Z,4.30
2023-03-17T06:11:08.380Z,3.67
2023-03-17T06:13:35.503Z,4.00
2023-03-17T06:16:03.174Z,4.05
2023-03-17T06:18:30.123Z,4.00
2023-03-17T06:20:57.392Z,3.58
2023-03-17T06:23:24.311Z,4.75
2023-03-17T06:25:51.318Z,5.60
2023-03-17T06:28:18.617Z,6.15
2023-03-17T06:30:45.858Z,6.05
2023-03-17T06:33:13.341Z,5.22
2023-03-17T06:35:40.683Z,3.90
2023-03-17T06:38:07.726Z,4.30
2023-03-17T06:40:34.703Z,4.82
2023-03-17T06:43:01.934Z,4.37
2023-03-17T06:45:29.167Z,4.30
2023-03-17T06:47:56.405Z,4.00
2023-03-17T06:50:23.280Z,4.30
2023-03-17T06:52:50.192Z,3.50
2023-03-17T06:55:17.681Z,3.80
2023-03-17T06:57:44.690Z,4.47
2023-03-17T07:00:14.305Z,4.00
2023-03-17T07:02:41.533Z,3.30
2023-03-17T07:05:08.702Z,3.42
2023-03-17T07:07:35.923Z,5.15
2023-03-17T07:10:03.406Z,3.10
2023-03-17T07:12:30.369Z,2.80
2023-03-17T07:14:58.163Z,2.90
2023-03-17T07:17:25.386Z,2.90
2023-03-17T07:19:52.569Z,3.20
2023-03-17T07:22:19.536Z,2.95
2023-03-17T07:24:49.280Z,2.60
2023-03-17T07:27:17.008Z,2.60
2023-03-17T07:29:44.046Z,2.75
2023-03-17T07:32:11.458Z,2.65
2023-03-17T07:34:38.359Z,2.30
2023-03-17T07:37:07.045Z,2.60
2023-03-17T07:39:34.142Z,2.40
2023-03-17T07:42:01.070Z,2.37
2023-03-17T07:44:28.989Z,3.00
2023-03-17T07:46:56.652Z,3.10
2023-03-17T07:49:39.992Z,3.45
2023-03-17T07:52:08.698Z,2.20
2023-03-17T07:54:36.669Z,3.00
2023-03-17T07:57:04.571Z,2.85
2023-03-17T07:59:31.809Z,2.78
2023-03-17T08:02:01.472Z,2.70
2023-03-17T08:04:29.026Z,2.37
2023-03-17T08:06:56.084Z,3.00
2023-03-17T08:09:23.407Z,2.92
2023-03-17T08:11:50.385Z,2.87
2023-03-17T08:14:17.462Z,3.12
2023-03-17T08:16:44.554Z,3.15
2023-03-17T08:19:11.914Z,3.22
2023-03-17T08:21:38.834Z,2.72
2023-03-17T08:24:06.086Z,3.85
2023-03-17T08:26:33.595Z,3.15
2023-03-17T08:29:01.310Z,2.78
2023-03-17T08:31:31.093Z,2.85
2023-03-17T08:33:58.054Z,2.70
2023-03-17T08:36:26.218Z,2.70
2023-03-17T08:38:53.459Z,2.85
2023-03-17T08:41:22.982Z,2.85
2023-03-17T08:43:51.009Z,2.40
2023-03-17T08:46:21.264Z,2.70
2023-03-17T08:48:49.581Z,2.70
2023-03-17T08:51:18.968Z,2.47
2023-03-17T08:53:47.202Z,2.58
2023-03-17T08:56:15.009Z,3.40
2023-03-17T08:58:42.773Z,2.97
2023-03-17T09:01:11.055Z,2.83
2023-03-17T09:03:41.009Z,3.65
2023-03-17T09:06:11.327Z,3.20
2023-03-17T09:08:40.133Z,3.33
2023-03-17T09:11:07.694Z,2.97
2023-03-17T09:13:36.169Z,3.42
2023-03-17T09:16:03.111Z,3.10
2023-03-17T09:18:31.530Z,2.70
2023-03-17T09:20:58.422Z,3.03
2023-03-17T09:23:27.668Z,3.40
2023-03-17T09:25:54.622Z,2.95
2023-03-17T09:28:21.552Z,2.85
2023-03-17T09:30:48.574Z,3.08
2023-03-17T09:33:16.489Z,3.03
2023-03-17T09:35:43.759Z,2.90
2023-03-17T09:38:12.968Z,3.10
2023-03-17T09:40:52.251Z,3.05
2023-03-17T09:43:56.444Z,2.60
2023-03-17T09:46:41.396Z,3.10
2023-03-17T09:49:10.874Z,3.65
2023-03-17T09:51:38.485Z,2.72
2023-03-17T09:54:13.742Z,3.20
2023-03-17T09:56:44.112Z,3.20
2023-03-17T09:59:49.507Z,3.20
2023-03-17T10:02:29.129Z,3.30
2023-03-17T10:04:57.536Z,3.30
2023-03-17T10:07:44.253Z,3.20
2023-03-17T10:10:44.352Z,3.08
2023-03-17T10:13:42.755Z,2.83
2023-03-17T10:16:17.889Z,2.50
2023-03-17T10:18:52.299Z,2.78
2023-03-17T10:21:24.420Z,2.80
2023-03-17T10:23:51.366Z,2.90
2023-03-17T10:26:34.129Z,2.83
2023-03-17T10:29:04.542Z,3.10
2023-03-17T10:31:35.838Z,2.42
2023-03-17T10:34:14.129Z,3.00
2023-03-17T10:36:45.112Z,2.87
2023-03-17T10:39:15.232Z,3.03
2023-03-17T10:41:52.727Z,2.72
2023-03-17T10:44:40.727Z,2.33
2023-03-17T10:49:47.155Z,2.80
2023-03-17T10:52:21.908Z,2.80
2023-03-17T10:54:51.511Z,2.72
2023-03-17T10:57:19.170Z,2.80
2023-03-17T10:59:53.553Z,2.80
2023-03-17T11:02:25.415Z,3.30
2023-03-17T11:05:05.034Z,3.20
2023-03-17T11:07:38.836Z,2.83
2023-03-17T11:10:18.133Z,3.03
2023-03-17T11:12:45.494Z,3.08
2023-03-17T11:15:17.218Z,2.50
2023-03-17T11:17:59.911Z,2.67
2023-03-17T11:20:41.388Z,2.87
2023-03-17T11:23:36.510Z,2.80
2023-03-17T11:26:15.012Z,2.85
2023-03-17T11:28:45.722Z,2.97
2023-03-17T11:31:32.448Z,2.60
2023-03-17T11:34:20.221Z,2.53
2023-03-17T11:37:34.316Z,3.30
2023-03-17T11:40:04.202Z,3.10
2023-03-17T11:42:57.172Z,3.15
2023-03-17T11:45:47.496Z,2.70
2023-03-17T11:48:19.444Z,2.87
2023-03-17T11:51:30.567Z,2.87
2023-03-17T11:54:08.226Z,2.92
2023-03-17T11:57:01.980Z,2.90
2023-03-17T11:59:34.555Z,2.95
2023-03-17T12:02:28.994Z,2.65
2023-03-17T12:05:05.170Z,2.92
2023-03-17T12:07:48.286Z,2.70
2023-03-17T12:10:34.610Z,2.87
2023-03-17T12:13:07.875Z,2.83
2023-03-17T12:16:06.291Z,3.10
2023-03-17T12:18:34.888Z,2.72
2023-03-17T12:21:14.098Z,2.80
2023-03-17T12:23:49.696Z,2.83
2023-03-17T12:26:26.808Z,2.78
2023-03-17T12:29:00.274Z,2.97
2023-03-17T12:31:35.549Z,2.80
2023-03-17T12:34:17.707Z,3.10
2023-03-17T12:36:44.932Z,2.95
2023-03-17T12:39:16.423Z,3.80
2023-03-17T12:41:49.706Z,4.28
2023-03-17T12:44:39.327Z,2.85
2023-03-17T12:47:19.773Z,3.00
2023-03-17T12:50:31.640Z,2.70
2023-03-17T12:53:14.152Z,2.90
2023-03-17T12:55:42.826Z,2.85
2023-03-17T12:58:26.464Z,2.97
2023-03-17T13:00:59.229Z,2.70
2023-03-17T13:03:32.738Z,2.60
2023-03-17T13:06:05.827Z,2.92
2023-03-17T13:08:36.234Z,2.97
2023-03-17T13:11:29.606Z,2.75
2023-03-17T13:14:41.272Z,3.03
2023-03-17T13:17:17.551Z,2.60
2023-03-17T13:20:07.067Z,3.03
2023-03-17T13:22:37.757Z,3.12
2023-03-17T13:25:33.562Z,2.97
2023-03-17T13:28:25.180Z,3.20
2023-03-17T13:30:52.399Z,3.62
2023-03-17T13:33:24.212Z,2.97
2023-03-17T13:36:33.814Z,2.90
2023-03-17T13:39:18.793Z,3.20
2023-03-17T13:42:18.729Z,2.55
2023-03-17T13:44:58.025Z,2.90
2023-03-17T13:47:34.954Z,2.50
2023-03-17T13:50:12.709Z,2.87
2023-03-17T13:52:41.909Z,2.90
2023-03-17T13:55:18.160Z,3.20
2023-03-17T13:58:11.616Z,3.58
2023-03-17T14:00:40.852Z,2.75
2023-03-17T14:03:19.850Z,2.60
2023-03-17T14:05:49.470Z,2.65
2023-03-17T14:08:21.994Z,2.70
2023-03-17T14:11:00.761Z,2.80
2023-03-17T14:14:10.711Z,3.08
2023-03-17T14:16:51.623Z,3.20
2023-03-17T14:19:22.502Z,2.92
2023-03-17T14:21:50.093Z,3.25
2023-03-17T14:24:21.862Z,3.10
2023-03-17T14:26:50.449Z,3.40
2023-03-17T14:29:20.164Z,3.03
2023-03-17T14:31:48.896Z,2.97
2023-03-17T14:34:16.745Z,2.92
2023-03-17T14:36:43.882Z,3.00
2023-03-17T14:39:22.080Z,3.17
2023-03-17T14:42:02.081Z,3.58
2023-03-17T14:44:36.626Z,3.97
2023-03-17T14:47:06.331Z,3.05
2023-03-17T14:49:33.947Z,3.00
2023-03-17T14:52:01.914Z,3.20
2023-03-17T14:54:35.946Z,3.37
2023-03-17T14:57:07.843Z,2.90
2023-03-17T14:59:38.054Z,3.05
2023-03-17T15:02:29.018Z,2.97
2023-03-17T15:05:04.300Z,3.97
2023-03-17T15:07:40.045Z,3.50
2023-03-17T15:10:20.640Z,2.90
2023-03-17T15:12:48.508Z,3.20
2023-03-17T15:15:27.551Z,3.00
2023-03-17T15:17:59.686Z,3.25
2023-03-17T15:20:26.592Z,3.87
2023-03-17T15:22:59.072Z,4.35
2023-03-17T15:25:33.587Z,3.10
2023-03-17T15:28:00.682Z,3.50
2023-03-17T15:30:34.518Z,4.82
2023-03-17T15:33:29.354Z,3.25
2023-03-17T15:35:57.081Z,3.33
2023-03-17T15:38:24.777Z,3.30
2023-03-17T15:40:51.675Z,3.50
2023-03-17T15:43:21.671Z,3.85
2023-03-17T15:45:54.024Z,3.60
2023-03-17T15:48:26.119Z,3.92
2023-03-17T15:50:54.270Z,2.75
2023-03-17T15:53:21.806Z,4.00
2023-03-17T15:55:49.022Z,4.87
2023-03-17T15:58:16.362Z,5.70
2023-03-17T16:00:43.495Z,5.60
2023-03-17T16:03:19.389Z,6.72
2023-03-17T16:05:46.667Z,5.45
2023-03-17T16:08:14.909Z,4.10
2023-03-17T16:10:42.167Z,2.90
2023-03-17T16:13:09.698Z,2.80
2023-03-17T16:15:39.020Z,4.10
2023-03-17T16:18:10.767Z,3.70
2023-03-17T16:20:40.507Z,4.45
2023-03-17T16:23:24.961Z,3.30
2023-03-17T16:25:53.954Z,3.47
2023-03-17T16:28:25.125Z,5.20
2023-03-17T16:30:53.480Z,4.05
2023-03-17T16:33:27.658Z,4.47
2023-03-17T16:35:56.028Z,5.87
2023-03-17T16:38:24.965Z,7.55
2023-03-17T16:40:56.450Z,9.60
2023-03-17T16:43:29.198Z,9.65
2023-03-17T16:45:58.577Z,10.63
2023-03-17T16:48:26.167Z,12.02
2023-03-17T16:50:53.650Z,13.98
2023-03-17T16:53:20.917Z,9.30
2023-03-17T16:55:48.414Z,7.68
2023-03-17T16:58:17.319Z,7.60
2023-03-17T17:00:44.919Z,8.38
2023-03-17T17:03:11.849Z,9.32
2023-03-17T17:05:39.047Z,10.40
2023-03-17T17:08:06.128Z,14.32
2023-03-17T17:10:34.282Z,16.37
2023-03-17T17:13:02.493Z,14.75
2023-03-17T17:15:30.590Z,14.18
2023-03-17T17:17:59.884Z,15.52
2023-03-17T17:20:32.678Z,16.77
2023-03-17T17:23:01.169Z,12.90
2023-03-17T17:25:28.934Z,13.88
2023-03-17T17:27:56.665Z,15.68
2023-03-17T17:30:28.128Z,15.40
2023-03-17T17:32:57.756Z,20.62
2023-03-17T17:35:26.771Z,22.62
2023-03-17T17:37:54.010Z,24.33
2023-03-17T17:40:24.580Z,19.45
2023-03-17T17:42:52.831Z,22.87
2023-03-17T17:45:20.410Z,18.37
2023-03-17T17:47:47.941Z,17.90
2023-03-17T17:50:21.593Z,12.90
2023-03-17T17:52:48.526Z,13.18
2023-03-17T17:55:15.435Z,13.25
2023-03-17T17:57:42.382Z,14.00
2023-03-17T18:00:12.761Z,15.25
2023-03-17T18:02:39.615Z,13.43
2023-03-17T18:07:35.603Z,8.85
2023-03-17T18:10:02.973Z,9.48
2023-03-17T18:12:29.869Z,10.15
2023-03-17T18:14:56.763Z,11.15
2023-03-17T18:17:23.700Z,10.35
2023-03-17T18:19:53.574Z,10.07
2023-03-17T18:22:20.595Z,11.30
2023-03-17T18:24:48.453Z,10.85
2023-03-17T18:27:17.908Z,10.98
2023-03-17T18:29:45.050Z,8.20
2023-03-17T18:32:13.379Z,8.15
2023-03-17T18:34:44.241Z,7.72
2023-03-17T18:37:13.317Z,7.22
2023-03-17T18:39:41.150Z,8.90
2023-03-17T18:42:09.017Z,9.07
2023-03-17T18:44:36.302Z,9.10
2023-03-17T18:47:03.901Z,10.80
2023-03-17T18:49:30.816Z,10.73
2023-03-17T18:51:59.627Z,14.10
2023-03-17T18:54:28.749Z,16.55
2023-03-17T18:56:56.615Z,14.45
2023-03-17T18:59:23.700Z,13.38
2023-03-17T19:01:50.598Z,12.37
2023-03-17T19:04:17.526Z,14.70
2023-03-17T19:06:44.910Z,17.48
2023-03-17T19:09:12.390Z,18.85
2023-03-17T19:11:39.803Z,15.82
2023-03-17T19:14:08.508Z,16.90
2023-03-17T19:16:35.544Z,18.60
2023-03-17T19:19:04.753Z,19.12
2023-03-17T19:21:31.628Z,15.38
2023-03-17T19:26:27.229Z,10.00
2023-03-17T19:28:56.401Z,11.23
2023-03-17T19:31:24.897Z,10.52
2023-03-17T19:33:52.345Z,10.07
2023-03-17T19:36:19.411Z,12.43
2023-03-17T19:38:46.484Z,12.02
2023-03-17T19:41:14.871Z,11.50
2023-03-17T19:43:41.969Z,7.93
2023-03-17T19:46:10.523Z,8.68
2023-03-17T19:48:37.600Z,8.60
2023-03-17T19:51:05.027Z,8.95
2023-03-17T19:53:31.963Z,9.48
2023-03-17T19:55:58.885Z,8.18
2023-03-17T19:58:26.025Z,9.40
2023-03-17T20:00:53.147Z,9.95
2023-03-17T20:03:19.994Z,8.60
2023-03-17T20:08:14.711Z,9.05
2023-03-17T20:10:41.594Z,8.63
2023-03-17T20:13:08.476Z,7.45
2023-03-17T20:18:02.508Z,10.10
2023-03-17T20:20:29.920Z,11.48
2023-03-17T20:22:57.513Z,11.95
2023-03-17T20:25:24.416Z,11.57
2023-03-17T20:27:51.316Z,10.88
2023-03-17T20:30:18.261Z,10.52
2023-03-17T20:32:45.362Z,6.55
2023-03-17T20:35:12.347Z,8.48
2023-03-17T20:37:39.650Z,9.18
2023-03-17T20:40:08.985Z,11.07
2023-03-17T20:42:36.251Z,10.93
2023-03-17T20:45:03.755Z,8.35
2023-03-17T20:47:31.241Z,9.75
2023-03-17T20:49:59.025Z,9.00
2023-03-17T20:52:29.957Z,8.75
2023-03-17T20:54:57.829Z,9.80
2023-03-17T20:57:24.740Z,9.90
2023-03-17T20:59:52.147Z,7.82
2023-03-17T21:02:19.209Z,9.98
2023-03-17T21:04:48.246Z,12.30
2023-03-17T21:07:16.890Z,13.40
2023-03-17T21:09:45.082Z,18.50
2023-03-17T21:12:13.919Z,16.75
2023-03-17T21:14:41.302Z,12.45
2023-03-17T21:17:09.089Z,10.13
2023-03-17T21:19:37.108Z,9.90
2023-03-17T21:22:04.540Z,8.90
2023-03-17T21:24:34.152Z,9.63
2023-03-17T21:27:03.331Z,9.35
2023-03-17T21:29:31.834Z,10.65
2023-03-17T21:32:00.787Z,11.30
2023-03-17T21:34:29.273Z,11.00
2023-03-17T21:36:57.411Z,13.73
2023-03-17T21:39:27.022Z,13.40
2023-03-17T21:41:55.564Z,23.45
2023-03-17T21:44:22.556Z,46.60
2023-03-17T21:46:50.016Z,46.30
2023-03-17T21:49:18.875Z,35.33
2023-03-17T21:51:46.843Z,24.60
2023-03-17T21:54:14.385Z,21.00
2023-03-17T21:56:42.007Z,20.48
2023-03-17T21:59:14.134Z,17.20
2023-03-17T22:01:41.982Z,13.77
2023-03-17T22:04:09.448Z,17.45
2023-03-17T22:06:36.513Z,25.27
2023-03-17T22:09:04.612Z,14.35
2023-03-17T22:11:31.646Z,12.13
2023-03-17T22:13:59.136Z,11.35
2023-03-17T22:16:26.207Z,9.43
2023-03-17T22:18:53.308Z,9.65
2023-03-17T22:21:21.610Z,8.82
2023-03-17T22:23:48.722Z,8.27
2023-03-17T22:26:18.188Z,8.88
2023-03-17T22:28:46.244Z,9.43
2023-03-17T22:31:21.891Z,18.75
2023-03-17T22:33:50.584Z,13.82
2023-03-17T22:36:18.055Z,27.75
2023-03-17T22:38:46.172Z,29.70
2023-03-17T22:41:19.613Z,29.10
2023-03-17T22:43:47.232Z,24.48
2023-03-17T22:46:14.917Z,22.58
2023-03-17T22:48:41.850Z,20.23
2023-03-17T22:51:11.533Z,21.83
2023-03-17T22:53:39.271Z,14.35
2023-03-17T22:56:07.083Z,12.25
2023-03-17T22:58:34.492Z,13.98
2023-03-17T23:01:01.462Z,8.23
2023-03-17T23:03:29.189Z,8.32
2023-03-17T23:05:59.818Z,7.47
2023-03-17T23:08:29.513Z,8.80
2023-03-17T23:10:57.465Z,9.13
2023-03-17T23:13:24.398Z,9.07
2023-03-17T23:15:51.875Z,8.75
2023-03-17T23:18:18.964Z,10.25
2023-03-17T23:20:45.967Z,11.82
2023-03-17T23:23:13.267Z,17.15
2023-03-17T23:25:41.276Z,18.10
2023-03-17T23:28:08.459Z,17.17
2023-03-17T23:30:35.938Z,17.80
2023-03-17T23:33:05.001Z,17.65
2023-03-17T23:35:32.541Z,17.42
2023-03-17T23:38:00.452Z,16.52
2023-03-17T23:40:27.335Z,17.00
2023-03-17T23:42:55.245Z,17.02
2023-03-17T23:45:23.351Z,17.37
2023-03-17T23:47:51.750Z,15.73
2023-03-17T23:50:19.651Z,16.08
2023-03-17T23:52:47.291Z,12.98
2023-03-17T23:55:14.656Z,10.98
2023-03-17T23:57:41.718Z,10.75
